x

Neah Bay, - 6nm North Of Cape Flattery, Wa (traffic Separation Lighted Buoy) (46087) Wave Buoy

12:50 - Sun 26th Jun 2016 All times are PDT. -7 hours from GMT.

  • Sig Wave height 3.6ft
  • Swell Direction
  • Peak Period 8s
  • Average Period 6s
  • Wind
    4mph, 7mph gusts
  • Sea Temp 53°f
  • Air Temp 54°f
  • Sea Pressure 1023.7mb
  • Neah Bay, - 6nm North Of Cape Flattery, Wa     (traffic Separation Lighted Buoy)
  • Neah Bay, - 6nm North Of Cape Flattery, Wa     (traffic Separation Lighted Buoy)

More Historic Weather Station data

Upgrade to MSW Pro to gain access to the past 30 days of data for over 8000 Wavebouys and Weather Stations around the globe.

Join Pro

Comparision Forecast

View Surf forecast
   
dim. 06/26 12:50 3.5ft 8s 6s 4 7 mph 1023.7mb 53f 54f
12:20 3.5ft 17s 6s  -  2 mph 1023.8mb 53f 54f
sam. 06/25 11:50 3.5ft 7s 6s 4
mph
1023.7mb 54f 55f
11:20 4ft 8s 6s 4 7 mph 1023.8mb 54f 55f
10:50 3.5ft 17s 6s 7 9 mph 1023.9mb 54f 55f
10:20 3.5ft 19s 6s 7 9 mph 1023.8mb 54f 55f
9:50 3.5ft 17s 6s 9
mph
1023.7mb 54f 55f
9:20 3.5ft 7s 6s 9 11 mph 1023.6mb 54f 55f
8:50 3.5ft 7s 6s 9 11 mph 1023.6mb 53f 55f
8:20 3.5ft 7s 6s 9 11 mph 1023.6mb 53f 55f
7:50 3.5ft 19s 6s 11
mph
1023.6mb 53f 55f
7:20 3.5ft 7s 6s 9
mph
1023.9mb 53f 55f
6:50 3.5ft 7s 6s 9 11 mph 1024.1mb 53f 55f
6:20 4ft 6s 6s 11 13 mph 1024.2mb 54f 55f
5:50 4.5ft 7s 6s 11 13 mph 1024.5mb 54f 55f
5:20 4ft 7s 6s 11 13 mph 1024.7mb 54f 55f
2:50 4.5ft 8s 6s 9 11 mph 1025.7mb 54f 55f
2:20 3.5ft 7s 7s 7 9 mph 1025.9mb 54f 54f
1:50 4ft 7s 7s 7
mph
1026.1mb 53f 54f
1:20 3.5ft 8s 7s 4 7 mph 1026.1mb 53f 54f
12:50 3.5ft 7s 7s 7 9 mph 1026mb 53f 54f
12:20 3.5ft 7s 7s 7 9 mph 1026.1mb 53f 54f
11:50 3.5ft 7s 7s 7 9 mph 1026mb 53f 54f
11:20 3.5ft 8s 7s 4 7 mph 1026mb 53f 54f
10:50 4.5ft 8s 7s 7 9 mph 1025.9mb 53f 53f
10:20 4.5ft 8s 7s 4 7 mph 1025.9mb 52f 53f
9:50 3.5ft 8s 7s 4
mph
1025.9mb 52f 53f
9:20 3.5ft 8s 7s 2 4 mph 1025.9mb 52f 53f
8:50 4ft 8s 7s 2
mph
1025.8mb 52f 53f
8:20 4ft 8s 7s 2 4 mph 1025.7mb 52f 53f
7:50 3.5ft 8s 6s 2
mph
1025.6mb 52f 52f
7:20 4ft 8s 6s 2 4 mph 1025.6mb 52f 53f
6:50 5ft 8s 7s 2
mph
1025.4mb 52f 53f
6:20 4.5ft 8s 7s  -  2 mph 1025.3mb 52f 53f
5:50 4.5ft 8s 7s 2
mph
1025.4mb 52f 53f
5:20 4.5ft 8s 6s 2 4 mph 1025.6mb 52f 52f
4:50 4.5ft 8s 6s 2
mph
1025.5mb 52f 53f
4:20 4.5ft 8s 6s 2
mph
1025.4mb 52f 53f
3:50 4.5ft 7s 7s  -  mph 1025.5mb 52f 53f
3:20 4.5ft 8s 7s  -  2 mph 1025.5mb 53f 53f
2:50 4.5ft 8s 7s 2 4 mph 1025.6mb 53f 53f
2:20 4ft 8s 7s 2
mph
1025.7mb 53f 54f
1:50 4ft 7s 7s 4 7 mph 1025.8mb 53f 53f
1:20 4.5ft 8s 7s  -  2 mph 1025.9mb 53f 53f
12:50 4.5ft 8s 7s  -  2 mph 1025.8mb 53f 53f
12:20 4ft 8s 7s  -  2 mph 1025.8mb 53f 54f
ven. 06/24 11:50 4.5ft 8s 7s 2
mph
1025.8mb 53f 54f
11:20 4ft 8s 7s 2
mph
1025.9mb 53f 54f
10:50 4.5ft 7s 7s 4 7 mph 1026mb 54f 54f
10:20 4ft 8s 7s 4
mph
1025.9mb 53f 54f
9:50 4.5ft 8s 6s 4 7 mph 1025.8mb 53f 55f
9:20 4.5ft 8s 7s 2 4 mph 1025.6mb 53f 54f
8:50 4.5ft 8s 6s 4
mph
1025.5mb 53f 54f
8:20 4.5ft 7s 6s 4
mph
1025.5mb 53f 54f
7:50 4.5ft 8s 6s 4 7 mph 1025.5mb 53f 54f
7:20 4.5ft 7s 6s 7
mph
1025.2mb 53f 55f
6:50 4ft 7s 6s 4 7 mph 1025.1mb 53f 54f
6:20 4.5ft 7s 6s 7 9 mph 1025mb 53f 54f
5:50 4.5ft 7s 6s 9
mph
1025mb 53f 54f
5:20 4.5ft 8s 6s 7
mph
1024.9mb 52f 54f
4:50 4.5ft 6s 6s 7 9 mph 1024.9mb 52f 54f
4:20 4.5ft 7s 6s 7
mph
1024.8mb 52f 54f
3:50 4.5ft 7s 6s 7
mph
1024.9mb 52f 54f
3:20 4.5ft 7s 6s 4 7 mph 1024.8mb 52f 54f
2:50 4.5ft 8s 6s 9
mph
1024.5mb 52f 54f
2:20 4ft 8s 6s 9 11 mph 1024.2mb 52f 54f
1:50 4.5ft 6s 6s 9
mph
1023.8mb 52f 53f
1:20 4ft 8s 6s 7
mph
1023.6mb 52f 53f
12:50 4ft 6s 6s 9
mph
1023.2mb 53f 53f
12:20 3.5ft 6s 6s 9 11 mph 1022.9mb 53f 53f
11:50 3.5ft 6s 6s 7 9 mph 1022.7mb 53f 54f
11:20 3.5ft 6s 6s 7 9 mph 1022.4mb 53f 54f
10:50 3.5ft 7s 6s 7 9 mph 1022.1mb 53f 54f
10:20 3.5ft 7s 7s 7 9 mph 1021.7mb 53f 54f
9:50 3.5ft 7s 7s 7
mph
1021.6mb 53f 53f
9:20 4ft 7s 7s 4 7 mph 1021.4mb 53f 53f
8:50 3.5ft 19s 6s 4
mph
1021.1mb 53f 53f
8:20 4ft 7s 6s 2 4 mph 1020.8mb 53f 53f
7:50 3.5ft 7s 6s  -  mph 1020.5mb 53f 53f
7:20 4ft 6s 6s 2
mph
1020.3mb 53f 53f
6:50 4.5ft 7s 6s  -  2 mph 1020mb 53f 53f
6:20 4.5ft 6s 6s  -  2 mph 1019.6mb 53f 53f
5:50 4.5ft 6s 6s  -  2 mph 1019.2mb 53f 53f
5:20 4.5ft 6s 6s 4 7 mph 1018.9mb 53f 53f
4:50 4.5ft 6s 6s 7
mph
1018.7mb 53f 53f
4:20 4.5ft 7s 6s 7 9 mph 1018.4mb 53f 53f
3:50 4ft 6s 6s 9 11 mph 1018.1mb 53f 53f
3:20 4ft 7s 6s 11
mph
1018mb 53f 53f
2:50 4ft 6s 6s 7 9 mph 1018mb 53f 53f
2:20 3.5ft 8s 6s 2 4 mph 1018mb 53f 53f
1:50 4ft 6s 6s 4 7 mph 1017.9mb 53f 53f
1:20 3.5ft 7s 6s 4 9 mph 1018mb 53f 54f
12:50 4ft 6s 6s 4 7 mph 1018.2mb 53f 53f
12:20 3.5ft 6s 6s 2
mph
1018.4mb 54f 53f
jeu. 06/23 11:50 4ft 7s 6s  -  2 mph 1018.3mb 54f 54f
11:20 4ft 6s 6s 7
mph
1018.3mb 54f 55f
10:50 4ft 7s 6s 11 13 mph 1018.3mb 54f 54f
10:20 4ft 7s 6s 7
mph
1018.3mb 54f 55f
9:50 4.5ft 8s 6s 7
mph
1018.2mb 54f 55f
9:20 4.5ft 6s 6s 7
mph
1018.1mb 55f 55f
8:50 4ft 6s 6s 7
mph
1018.1mb 55f 55f
8:20 4ft 6s 6s 7
mph
1018mb 55f 56f
7:50 4.5ft 8s 6s 9
mph
1017.9mb 55f 56f
7:20 4ft 6s 6s 7
mph
1017.9mb 55f 56f
6:50 3.5ft 5s 6s 4 7 mph 1017.8mb 55f 56f
6:20 4ft 7s 6s 4
mph
1017.9mb 55f 56f
5:50 4ft 7s 6s 4 7 mph 1017.8mb 54f 56f
5:20 4ft 8s 6s 7
mph
1017.7mb 54f 55f
4:50 4ft 5s 6s 4 7 mph 1017.5mb 54f 55f
4:20 4.5ft 8s 6s 4
mph
1017.5mb 54f 55f
3:50 3.5ft 8s 5s 4
mph
1017.3mb 53f 55f
3:20 4ft 6s 6s 4 7 mph 1017.2mb 53f 55f
2:50 3.5ft 8s 6s 4 7 mph 1017mb 53f 54f
2:20 4ft 7s 6s 7
mph
1016.8mb 53f 54f
1:50 3.5ft 8s 6s 7
mph
1016.7mb 53f 54f
1:20 3.5ft 8s 6s 7 9 mph 1016.5mb 53f 54f
12:50 3.5ft 8s 6s 9 11 mph 1016.4mb 53f 54f
12:20 3.5ft 9s 6s 7 9 mph 1016.2mb 52f 54f
11:50 3.5ft 9s 7s 9
mph
1015.8mb 52f 53f
11:20 3.5ft 7s 7s 4
mph
1015.3mb 52f 53f
10:50 3.5ft 8s 7s 9
mph
1014.9mb 52f 53f
10:20 3.5ft 8s 7s 11 13 mph 1014.6mb 52f 54f
9:50 3ft 8s 7s 9 11 mph 1014.1mb 53f 54f
9:20 3.5ft 8s 7s 4 7 mph 1013.8mb 53f 54f
8:50 3.5ft 8s 7s 7 9 mph 1013.7mb 53f 53f
8:20 3.5ft 8s 6s 9 11 mph 1013.4mb 53f 53f
7:50 3ft 8s 6s 13 18 mph 1013.1mb 53f 53f
7:20 3.5ft 7s 6s 13 18 mph 1012.8mb 53f 54f
6:50 3ft 7s 6s 13 18 mph 1012.5mb 53f 54f
6:20 3.5ft 7s 6s 13 18 mph 1012.5mb 53f 54f
5:50 3.5ft 8s 6s 13 18 mph 1012.3mb 53f 53f
5:20 3.5ft 8s 6s 13 18 mph 1012.3mb 53f 53f
4:50 3.5ft 8s 6s 13 16 mph 1012.2mb 52f 53f
4:20 3.5ft 7s 6s 13
mph
1012.2mb 52f 53f
3:50 3.5ft 8s 6s 11 13 mph 1012.3mb 52f 54f
3:20 3.5ft 8s 6s 11 13 mph 1012.4mb 52f 54f
2:50 3.5ft 8s 6s 11 16 mph 1012.6mb 52f 53f
2:20 3.5ft 7s 6s 9 11 mph 1012.8mb 53f 53f
1:20 3.5ft 8s 7s 9 11 mph 1013.2mb 53f 53f
12:50 3.5ft 7s 7s 11 13 mph 1013.5mb 53f 53f
12:20 3.5ft 8s 7s 9 11 mph 1013.7mb 53f 53f
mer. 06/22 11:50 2.5ft 8s 7s 7 9 mph 1013.9mb 53f 53f
11:20 3ft 8s 7s 4
mph
1014.2mb 54f 53f
10:50 3ft 8s 7s 4
mph
1014.4mb 54f 53f
10:20 3.5ft 7s 7s 4
mph
1014.6mb 54f 53f
9:50 3.5ft 8s 7s 4
mph
1014.6mb 54f 53f
9:20 3.5ft 8s 7s 4
mph
1014.6mb 55f 54f
8:50 4ft 8s 7s 2 4 mph 1014.9mb 55f 54f
8:20 3.5ft 7s 7s 2
mph
1015.3mb 55f 54f
7:50 3.5ft 8s 7s  -  2 mph 1015.6mb 55f 54f
7:20 3.5ft 8s 6s 2 4 mph 1016mb 55f 54f
6:50 3.5ft 8s 7s 7
mph
1016.3mb 55f 54f
6:20 4ft 8s 7s  -  2 mph 1016.4mb 56f 57f
5:50 4ft 8s 6s  -  2 mph 1016.8mb 56f 56f
5:20 4ft 8s 6s  -  2 mph 1017.2mb 55f 56f
4:50 4ft 8s 6s  -  2 mph 1017.5mb 55f 56f
4:20 4ft 8s 6s 4 7 mph 1017.8mb 55f 56f
3:50 4.5ft 8s 6s  -  2 mph 1018mb 55f 57f
3:20 4.5ft 8s 6s  -  2 mph 1018.3mb 55f 58f
2:50 4.5ft 8s 6s  -  2 mph 1018.4mb 54f 57f
2:20 5ft 8s 6s 2 4 mph 1018.6mb 54f 56f
1:50 5ft 8s 6s 2
mph
1018.8mb 54f 56f
1:20 5.5ft 8s 7s 2 4 mph 1018.8mb 54f 56f
12:50 5.5ft 8s 7s  -  2 mph 1018.8mb 54f 56f
12:20 5ft 8s 7s 2
mph
1019mb 54f 56f
11:50 5ft 8s 7s  -  2 mph 1019.2mb 54f 56f
11:20 5ft 8s 7s  -  2 mph 1019.2mb 54f 55f
10:50 5ft 8s 7s  -  2 mph 1019.3mb 53f 55f
10:20 5ft 8s 7s  -  2 mph 1019.4mb 53f 55f
9:50 5ft 8s 7s 2
mph
1019.5mb 53f 54f
9:20 5ft 8s 7s  -  2 mph 1019.4mb 53f 55f
8:50 5ft 9s 7s 2
mph
1019.6mb 53f 54f